Aviation Digital Data Service (ADDS)

Output produced by METARs form (0641 UTC 27 March 2017)
found at http://www.aviationweather.gov/adds/metars/
 
TAF TQPF 262300Z 2700/2724 16008KT 9999 SCT018 
     PROB30 
     TEMPO 2700/2708 SHRA 
     PROB40 
     TEMPO 2710/2720 4800 SHRA BKN014 BKN036 
     PROB30 
     TEMPO 2710/2720 4000 TSRA FEW013CB